createdAt,value
2023-01-28T00:00:47.420Z,2.00
2023-01-28T00:01:46.609Z,1.70
2023-01-28T00:02:45.777Z,2.00
2023-01-28T00:03:46.059Z,1.90
2023-01-28T00:04:45.880Z,1.60
2023-01-28T00:05:45.728Z,1.70
2023-01-28T00:06:45.995Z,2.00
2023-01-28T00:07:46.052Z,1.60
2023-01-28T00:08:46.113Z,2.60
2023-01-28T00:09:46.167Z,2.10
2023-01-28T00:10:46.288Z,2.60
2023-01-28T00:11:46.295Z,2.90
2023-01-28T00:12:46.356Z,2.20
2023-01-28T00:13:46.086Z,1.70
2023-01-28T00:14:46.382Z,1.90
2023-01-28T00:15:45.584Z,1.60
2023-01-28T00:16:46.458Z,1.80
2023-01-28T00:17:46.354Z,1.60
2023-01-28T00:18:46.501Z,1.30
2023-01-28T00:19:46.753Z,1.70
2023-01-28T00:20:46.311Z,1.70
2023-01-28T00:21:46.211Z,1.90
2023-01-28T00:22:46.372Z,1.50
2023-01-28T00:23:45.585Z,1.50
2023-01-28T00:24:45.474Z,1.80
2023-01-28T00:25:46.341Z,1.50
2023-01-28T00:26:46.252Z,1.60
2023-01-28T00:27:46.406Z,1.70
2023-01-28T00:28:46.328Z,1.50
2023-01-28T00:29:46.224Z,1.90
2023-01-28T00:30:45.415Z,1.50
2023-01-28T00:31:45.459Z,1.80
2023-01-28T00:32:45.451Z,1.80
2023-01-28T00:33:45.511Z,1.60
2023-01-28T00:34:45.621Z,1.80
2023-01-28T00:35:45.734Z,1.50
2023-01-28T00:36:45.568Z,1.60
2023-01-28T00:37:45.298Z,1.80
2023-01-28T00:38:45.801Z,1.80
2023-01-28T00:39:45.854Z,1.70
2023-01-28T00:40:45.298Z,1.60
2023-01-28T00:41:45.299Z,1.70
2023-01-28T00:42:45.987Z,1.70
2023-01-28T00:43:45.232Z,1.50
2023-01-28T00:44:46.058Z,1.80
2023-01-28T00:45:47.461Z,1.70
2023-01-28T00:46:46.107Z,1.80
2023-01-28T00:47:46.023Z,1.90
2023-01-28T00:48:45.291Z,2.00
2023-01-28T00:49:45.809Z,1.60
2023-01-28T00:50:46.002Z,1.70
2023-01-28T00:51:45.897Z,1.60
2023-01-28T00:52:46.072Z,1.60
2023-01-28T00:53:45.966Z,1.70
2023-01-28T00:54:45.418Z,1.70
2023-01-28T00:55:45.128Z,1.80
2023-01-28T00:56:45.932Z,1.60
2023-01-28T00:57:45.829Z,2.20
2023-01-28T00:58:45.441Z,2.10
2023-01-28T00:59:45.020Z,1.90
2023-01-28T01:00:45.072Z,2.00
2023-01-28T01:01:45.084Z,1.90
2023-01-28T01:02:45.246Z,1.90
2023-01-28T01:03:45.002Z,2.10
2023-01-28T01:04:45.311Z,2.00
2023-01-28T01:05:45.424Z,2.30
2023-01-28T01:06:45.415Z,2.50
2023-01-28T01:07:45.467Z,2.70
2023-01-28T01:08:45.523Z,3.50
2023-01-28T01:09:45.583Z,2.40
2023-01-28T01:10:45.603Z,2.80
2023-01-28T01:11:45.748Z,2.00
2023-01-28T01:12:45.605Z,1.90
2023-01-28T01:13:44.876Z,1.70
2023-01-28T01:14:45.189Z,2.30
2023-01-28T01:15:45.672Z,2.10
2023-01-28T01:16:45.203Z,2.00
2023-01-28T01:17:45.713Z,2.00
2023-01-28T01:18:45.610Z,2.10
2023-01-28T01:19:45.009Z,2.40
2023-01-28T01:20:45.676Z,1.40
2023-01-28T01:21:45.574Z,1.90
2023-01-28T01:22:45.026Z,1.60
2023-01-28T01:23:44.710Z,1.80
2023-01-28T01:24:44.899Z,1.60
2023-01-28T01:25:45.439Z,1.70
2023-01-28T01:26:45.603Z,1.80
2023-01-28T01:27:45.517Z,1.80
2023-01-28T01:28:44.652Z,2.10
2023-01-28T01:29:44.691Z,2.10
2023-01-28T01:30:44.803Z,2.00
2023-01-28T01:31:44.902Z,1.80
2023-01-28T01:32:44.863Z,1.70
2023-01-28T01:33:44.924Z,1.70
2023-01-28T01:34:44.978Z,2.10
2023-01-28T01:35:44.916Z,1.80
2023-01-28T01:36:45.099Z,1.60
2023-01-28T01:37:45.149Z,1.60
2023-01-28T01:38:45.197Z,1.60
2023-01-28T01:39:45.250Z,1.60
2023-01-28T01:40:45.288Z,1.60
2023-01-28T01:41:45.201Z,1.70
2023-01-28T01:42:44.471Z,1.80
2023-01-28T01:43:45.257Z,1.50
2023-01-28T01:44:45.409Z,1.40
2023-01-28T01:45:45.378Z,2.10
2023-01-28T01:46:44.940Z,1.60
2023-01-28T01:47:45.140Z,1.20
2023-01-28T01:48:45.285Z,1.20
2023-01-28T01:49:45.188Z,1.20
2023-01-28T01:50:45.095Z,1.40
2023-01-28T01:51:45.647Z,1.40
2023-01-28T01:52:45.158Z,1.40
2023-01-28T01:53:45.023Z,1.20
2023-01-28T01:54:45.761Z,1.40
2023-01-28T01:55:44.310Z,1.40
2023-01-28T01:56:44.815Z,1.40
2023-01-28T01:57:44.271Z,1.30
2023-01-28T01:58:44.262Z,1.40
2023-01-28T01:59:44.266Z,1.20
2023-01-28T02:00:44.233Z,1.20
2023-01-28T02:01:44.252Z,1.60
2023-01-28T02:02:44.254Z,1.80
2023-01-28T02:03:44.290Z,1.30
2023-01-28T02:04:44.252Z,1.00
2023-01-28T02:05:44.166Z,1.40
2023-01-28T02:06:44.252Z,1.10
2023-01-28T02:07:44.288Z,1.40
2023-01-28T02:08:44.253Z,0.90
2023-01-28T02:09:44.126Z,1.00
2023-01-28T02:10:44.102Z,1.20
2023-01-28T02:11:44.110Z,1.60
2023-01-28T02:12:44.073Z,1.40
2023-01-28T02:13:44.257Z,1.20
2023-01-28T02:14:44.065Z,1.10
2023-01-28T02:15:44.031Z,1.40
2023-01-28T02:16:44.096Z,1.70
2023-01-28T02:17:44.012Z,1.10
2023-01-28T02:18:44.005Z,1.00
2023-01-28T02:19:44.279Z,1.00
2023-01-28T02:20:43.979Z,1.20
2023-01-28T02:21:43.979Z,1.00
2023-01-28T02:22:44.248Z,1.30
2023-01-28T02:23:44.261Z,1.20
2023-01-28T02:24:44.255Z,1.20
2023-01-28T02:25:44.252Z,1.30
2023-01-28T02:26:43.935Z,1.20
2023-01-28T02:27:43.879Z,1.20
2023-01-28T02:28:43.974Z,1.20
2023-01-28T02:29:43.908Z,1.10
2023-01-28T02:30:44.274Z,1.10
2023-01-28T02:31:44.302Z,1.20
2023-01-28T02:32:43.847Z,1.10
2023-01-28T02:33:43.804Z,1.20
2023-01-28T02:34:43.787Z,1.40
2023-01-28T02:35:44.622Z,1.40
2023-01-28T02:36:43.797Z,1.20
2023-01-28T02:37:44.246Z,1.20
2023-01-28T02:38:44.247Z,1.30
2023-01-28T02:39:43.720Z,1.20
2023-01-28T02:40:43.736Z,1.20
2023-01-28T02:41:44.262Z,1.30
2023-01-28T02:42:43.689Z,1.30
2023-01-28T02:43:44.281Z,1.50
2023-01-28T02:44:43.672Z,1.30
2023-01-28T02:45:43.654Z,1.50
2023-01-28T02:46:44.249Z,1.50
2023-01-28T02:47:43.615Z,1.20
2023-01-28T02:48:43.642Z,1.30
2023-01-28T02:49:43.607Z,1.30
2023-01-28T02:50:43.602Z,1.60
2023-01-28T02:51:43.607Z,1.20
2023-01-28T02:52:44.245Z,1.40
2023-01-28T02:53:44.333Z,1.50
2023-01-28T02:54:43.538Z,1.50
2023-01-28T02:55:43.570Z,1.50
2023-01-28T02:56:43.613Z,1.30
2023-01-28T02:57:43.654Z,1.10
2023-01-28T02:58:43.719Z,1.50
2023-01-28T02:59:43.766Z,1.50
2023-01-28T03:00:43.491Z,1.30
2023-01-28T03:01:43.975Z,1.20
2023-01-28T03:02:43.449Z,1.20
2023-01-28T03:03:44.000Z,1.20
2023-01-28T03:04:44.060Z,1.40
2023-01-28T03:05:43.471Z,1.20
2023-01-28T03:06:43.411Z,1.20
2023-01-28T03:07:43.405Z,1.30
2023-01-28T03:08:43.373Z,1.10
2023-01-28T03:09:44.176Z,1.00
2023-01-28T03:10:43.321Z,1.00
2023-01-28T03:11:43.337Z,1.30
2023-01-28T03:12:43.338Z,1.10
2023-01-28T03:13:43.418Z,0.90
2023-01-28T03:14:44.203Z,1.10
2023-01-28T03:15:43.328Z,1.30
2023-01-28T03:16:43.302Z,1.30
2023-01-28T03:17:43.276Z,1.40
2023-01-28T03:18:43.233Z,1.30
2023-01-28T03:19:43.321Z,1.10
2023-01-28T03:20:43.209Z,1.30
2023-01-28T03:21:44.049Z,1.10
2023-01-28T03:22:43.344Z,1.20
2023-01-28T03:23:43.207Z,1.10
2023-01-28T03:24:43.168Z,1.10
2023-01-28T03:25:43.208Z,1.10
2023-01-28T03:26:43.144Z,1.10
2023-01-28T03:27:43.147Z,1.00
2023-01-28T03:28:43.110Z,1.00
2023-01-28T03:29:43.087Z,0.90
2023-01-28T03:30:43.507Z,1.10
2023-01-28T03:31:43.547Z,1.50
2023-01-28T03:32:43.081Z,1.00
2023-01-28T03:33:43.042Z,1.10
2023-01-28T03:34:43.032Z,1.10
2023-01-28T03:35:43.060Z,1.10
2023-01-28T03:36:43.007Z,1.10
2023-01-28T03:37:43.026Z,1.10
2023-01-28T03:38:42.973Z,1.00
2023-01-28T03:39:43.850Z,1.00
2023-01-28T03:40:43.762Z,1.20
2023-01-28T03:41:43.910Z,1.60
2023-01-28T03:42:43.100Z,1.20
2023-01-28T03:43:42.942Z,0.90
2023-01-28T03:44:42.900Z,1.00
2023-01-28T03:45:42.875Z,1.10
2023-01-28T03:46:43.693Z,1.20
2023-01-28T03:47:42.873Z,1.30
2023-01-28T03:48:44.244Z,1.30
2023-01-28T03:49:42.839Z,1.00
2023-01-28T03:50:43.567Z,1.20
2023-01-28T03:51:43.715Z,1.20
2023-01-28T03:52:43.640Z,1.20
2023-01-28T03:53:42.840Z,1.20
2023-01-28T03:54:42.859Z,1.50
2023-01-28T03:55:42.915Z,1.30
2023-01-28T03:56:42.959Z,1.30
2023-01-28T03:57:42.758Z,1.10
2023-01-28T03:58:42.742Z,1.10
2023-01-28T03:59:42.694Z,1.10
2023-01-28T04:00:42.694Z,1.50
2023-01-28T04:01:42.712Z,1.00
2023-01-28T04:02:42.778Z,1.30
2023-01-28T04:03:43.370Z,1.30
2023-01-28T04:04:43.423Z,1.20
2023-01-28T04:05:43.402Z,1.10
2023-01-28T04:06:43.533Z,1.40
2023-01-28T04:07:43.461Z,1.20
2023-01-28T04:08:43.361Z,1.30
2023-01-28T04:09:42.615Z,1.30
2023-01-28T04:10:43.433Z,1.80
2023-01-28T04:11:43.339Z,1.80
2023-01-28T04:12:43.232Z,2.50
2023-01-28T04:13:42.531Z,1.90
2023-01-28T04:14:43.987Z,2.10
2023-01-28T04:15:42.713Z,2.10
2023-01-28T04:16:42.693Z,2.00
2023-01-28T04:17:42.505Z,1.80
2023-01-28T04:18:43.433Z,1.80
2023-01-28T04:19:42.479Z,1.80
2023-01-28T04:20:42.560Z,1.40
2023-01-28T04:21:42.494Z,1.70
2023-01-28T04:22:42.438Z,1.40
2023-01-28T04:23:42.390Z,1.50
2023-01-28T04:24:42.474Z,1.80
2023-01-28T04:25:42.490Z,1.60
2023-01-28T04:26:42.477Z,1.80
2023-01-28T04:27:42.376Z,1.50
2023-01-28T04:28:42.338Z,1.50
2023-01-28T04:29:42.327Z,1.20
2023-01-28T04:30:42.483Z,1.50
2023-01-28T04:31:42.319Z,1.40
2023-01-28T04:32:42.328Z,1.50
2023-01-28T04:33:42.297Z,1.40
2023-01-28T04:34:42.266Z,1.30
2023-01-28T04:35:42.243Z,1.30
2023-01-28T04:36:42.340Z,1.70
2023-01-28T04:37:42.228Z,1.30
2023-01-28T04:38:42.200Z,1.50
2023-01-28T04:39:42.192Z,2.00
2023-01-28T04:40:42.280Z,2.00
2023-01-28T04:41:42.481Z,2.20
2023-01-28T04:42:42.365Z,1.60
2023-01-28T04:43:42.149Z,1.90
2023-01-28T04:44:42.133Z,1.60
2023-01-28T04:45:42.115Z,1.60
2023-01-28T04:46:42.154Z,1.60
2023-01-28T04:47:42.377Z,1.50
2023-01-28T04:48:42.475Z,1.00
2023-01-28T04:49:42.475Z,1.20
2023-01-28T04:50:42.482Z,1.20
2023-01-28T04:51:42.036Z,1.20
2023-01-28T04:52:42.100Z,1.10
2023-01-28T04:53:42.162Z,1.10
2023-01-28T04:54:41.986Z,1.30
2023-01-28T04:55:41.984Z,1.50
2023-01-28T04:56:42.839Z,1.00
2023-01-28T04:57:42.383Z,1.10
2023-01-28T04:58:42.402Z,1.30
2023-01-28T04:59:41.932Z,1.00
2023-01-28T05:00:41.930Z,1.20
2023-01-28T05:01:41.950Z,1.10
2023-01-28T05:02:41.920Z,0.90
2023-01-28T05:03:41.881Z,0.90
2023-01-28T05:04:41.862Z,1.00
2023-01-28T05:05:41.853Z,1.10
2023-01-28T05:06:42.336Z,0.90
2023-01-28T05:07:41.852Z,0.90
2023-01-28T05:08:41.823Z,0.90
2023-01-28T05:09:42.480Z,0.70
2023-01-28T05:10:41.781Z,0.70
2023-01-28T05:11:42.575Z,0.60
2023-01-28T05:12:42.490Z,0.80
2023-01-28T05:13:41.739Z,1.10
2023-01-28T05:14:41.791Z,0.70
2023-01-28T05:15:41.729Z,0.80
2023-01-28T05:16:41.738Z,0.60
2023-01-28T05:17:42.712Z,0.80
2023-01-28T05:18:44.684Z,0.80
2023-01-28T05:19:42.438Z,0.90
2023-01-28T05:20:41.677Z,0.90
2023-01-28T05:21:41.718Z,1.30
2023-01-28T05:22:41.668Z,0.90
2023-01-28T05:23:41.620Z,0.90
2023-01-28T05:24:41.645Z,0.90
2023-01-28T05:25:41.958Z,0.80
2023-01-28T05:26:41.616Z,0.70
2023-01-28T05:27:41.796Z,0.70
2023-01-28T05:28:41.562Z,0.80
2023-01-28T05:29:41.545Z,0.90
2023-01-28T05:30:41.571Z,0.80
2023-01-28T05:31:41.761Z,0.50
2023-01-28T05:32:41.846Z,0.70
2023-01-28T05:33:41.523Z,0.70
2023-01-28T05:34:41.546Z,0.60
2023-01-28T05:35:41.464Z,0.80
2023-01-28T05:36:41.800Z,0.90
2023-01-28T05:37:41.855Z,0.80
2023-01-28T05:38:41.424Z,0.70
2023-01-28T05:39:41.415Z,0.80
2023-01-28T05:40:41.455Z,0.60
2023-01-28T05:41:41.436Z,0.80
2023-01-28T05:42:41.893Z,0.60
2023-01-28T05:43:41.864Z,0.70
2023-01-28T05:44:41.349Z,0.90
2023-01-28T05:45:41.478Z,0.50
2023-01-28T05:46:41.365Z,0.60
2023-01-28T05:47:44.064Z,0.80
2023-01-28T05:48:41.514Z,0.80
2023-01-28T05:49:41.284Z,0.60
2023-01-28T05:50:41.363Z,0.60
2023-01-28T05:51:41.285Z,0.70
2023-01-28T05:52:41.450Z,0.60
2023-01-28T05:53:41.486Z,0.70
2023-01-28T05:54:41.227Z,0.70
2023-01-28T05:55:41.224Z,0.50
2023-01-28T05:56:41.312Z,0.70
2023-01-28T05:57:41.746Z,0.70
2023-01-28T05:58:41.237Z,0.60
2023-01-28T05:59:41.569Z,0.70
2023-01-28T06:00:41.142Z,0.70
2023-01-28T06:01:41.142Z,0.80
2023-01-28T06:02:41.190Z,0.80
2023-01-28T06:03:41.105Z,0.60
2023-01-28T06:04:41.953Z,0.60
2023-01-28T06:05:41.081Z,0.70
2023-01-28T06:06:41.075Z,0.90
2023-01-28T06:07:41.100Z,0.60
2023-01-28T06:08:41.136Z,0.70
2023-01-28T06:09:41.990Z,0.70
2023-01-28T06:10:41.057Z,0.70
2023-01-28T06:11:41.011Z,0.60
2023-01-28T06:12:41.016Z,0.40
2023-01-28T06:13:41.842Z,0.80
2023-01-28T06:14:42.073Z,0.60
2023-01-28T06:15:41.707Z,0.80
2023-01-28T06:16:41.828Z,1.00
2023-01-28T06:17:41.775Z,0.80
2023-01-28T06:18:40.951Z,0.70
2023-01-28T06:19:40.899Z,0.80
2023-01-28T06:20:41.127Z,0.70
2023-01-28T06:21:41.048Z,0.80
2023-01-28T06:22:40.867Z,0.80
2023-01-28T06:23:41.069Z,0.70
2023-01-28T06:24:41.038Z,0.80
2023-01-28T06:25:40.888Z,0.80
2023-01-28T06:26:41.375Z,0.70
2023-01-28T06:27:40.812Z,0.80
2023-01-28T06:28:41.528Z,0.80
2023-01-28T06:29:41.520Z,0.70
2023-01-28T06:30:40.800Z,0.60
2023-01-28T06:31:40.770Z,0.70
2023-01-28T06:32:40.770Z,0.60
2023-01-28T06:33:41.488Z,0.70
2023-01-28T06:34:41.635Z,0.70
2023-01-28T06:35:40.671Z,0.90
2023-01-28T06:36:41.444Z,0.90
2023-01-28T06:37:41.607Z,0.60
2023-01-28T06:38:41.506Z,0.80
2023-01-28T06:39:41.422Z,0.90
2023-01-28T06:40:40.640Z,1.00
2023-01-28T06:41:41.488Z,1.40
2023-01-28T06:42:41.378Z,0.90
2023-01-28T06:43:40.626Z,1.10
2023-01-28T06:44:40.884Z,0.80
2023-01-28T06:45:40.764Z,0.70
2023-01-28T06:46:41.296Z,1.30
2023-01-28T06:47:40.495Z,0.80
2023-01-28T06:48:40.597Z,1.40
2023-01-28T06:49:40.737Z,0.80
2023-01-28T06:50:40.814Z,0.90
2023-01-28T06:51:40.543Z,0.70
2023-01-28T06:52:40.907Z,0.70
2023-01-28T06:53:40.859Z,1.00
2023-01-28T06:54:40.882Z,0.80
2023-01-28T06:55:40.750Z,0.90
2023-01-28T06:56:40.623Z,0.90
2023-01-28T06:57:40.386Z,1.00
2023-01-28T06:58:41.352Z,0.80
2023-01-28T06:59:40.900Z,1.10
2023-01-28T07:00:41.199Z,0.70
2023-01-28T07:01:40.399Z,0.70
2023-01-28T07:02:40.347Z,1.00
2023-01-28T07:03:40.317Z,1.00
2023-01-28T07:04:41.061Z,1.00
2023-01-28T07:05:41.227Z,1.00
2023-01-28T07:06:40.247Z,0.90
2023-01-28T07:07:42.052Z,1.30
2023-01-28T07:08:40.249Z,1.20
2023-01-28T07:09:40.214Z,1.50
2023-01-28T07:10:41.124Z,1.70
2023-01-28T07:11:40.193Z,1.70
2023-01-28T07:12:40.298Z,0.90
2023-01-28T07:13:40.498Z,0.90
2023-01-28T07:14:43.918Z,1.30
2023-01-28T07:15:41.127Z,1.40
2023-01-28T07:16:40.656Z,1.10
2023-01-28T07:17:41.275Z,1.60
2023-01-28T07:18:40.160Z,1.30
2023-01-28T07:19:40.994Z,1.20
2023-01-28T07:20:40.865Z,1.20
2023-01-28T07:21:40.160Z,0.90
2023-01-28T07:22:40.155Z,1.00
2023-01-28T07:23:40.223Z,1.00
2023-01-28T07:24:40.014Z,0.80
2023-01-28T07:25:40.265Z,1.20
2023-01-28T07:26:40.676Z,1.10
2023-01-28T07:27:40.176Z,3.00
2023-01-28T07:28:40.689Z,6.10
2023-01-28T07:29:40.718Z,4.60
2023-01-28T07:30:40.988Z,2.50
2023-01-28T07:31:40.948Z,1.60
2023-01-28T07:32:39.925Z,1.40
2023-01-28T07:33:39.925Z,1.20
2023-01-28T07:34:40.071Z,2.40
2023-01-28T07:35:40.068Z,1.00
2023-01-28T07:36:39.893Z,1.30
2023-01-28T07:37:40.901Z,1.50
2023-01-28T07:38:39.869Z,0.80
2023-01-28T07:39:39.875Z,1.00
2023-01-28T07:40:39.808Z,0.90
2023-01-28T07:41:39.806Z,0.80
2023-01-28T07:42:40.323Z,1.20
2023-01-28T07:43:39.814Z,1.40
2023-01-28T07:44:40.547Z,1.60
2023-01-28T07:45:40.728Z,1.30
2023-01-28T07:46:39.752Z,1.10
2023-01-28T07:47:39.717Z,0.90
2023-01-28T07:48:39.878Z,0.80
2023-01-28T07:49:39.904Z,1.10
2023-01-28T07:50:39.957Z,0.70
2023-01-28T07:51:39.718Z,0.80
2023-01-28T07:52:39.925Z,0.90
2023-01-28T07:53:40.241Z,1.00
2023-01-28T07:54:40.021Z,0.60
2023-01-28T07:55:40.221Z,1.00
2023-01-28T07:56:40.395Z,0.80
2023-01-28T07:57:40.079Z,0.60
2023-01-28T07:58:40.227Z,1.00
2023-01-28T07:59:40.017Z,1.10
2023-01-28T08:00:40.297Z,0.90
2023-01-28T08:01:39.571Z,0.80
2023-01-28T08:02:39.612Z,0.80
2023-01-28T08:03:39.543Z,0.90
2023-01-28T08:04:40.702Z,1.00
2023-01-28T08:05:40.032Z,0.80
2023-01-28T08:06:39.621Z,1.50
2023-01-28T08:07:39.841Z,1.10
2023-01-28T08:08:39.677Z,1.20
2023-01-28T08:09:39.582Z,1.20
2023-01-28T08:10:39.997Z,1.00
2023-01-28T08:11:41.413Z,1.00
2023-01-28T08:12:40.068Z,1.10
2023-01-28T08:13:40.399Z,0.80
2023-01-28T08:14:40.208Z,1.00
2023-01-28T08:15:39.978Z,0.80
2023-01-28T08:16:40.130Z,0.70
2023-01-28T08:17:39.400Z,0.80
2023-01-28T08:18:39.444Z,0.70
2023-01-28T08:19:39.508Z,0.60
2023-01-28T08:20:39.446Z,1.10
2023-01-28T08:21:39.688Z,1.20
2023-01-28T08:22:39.457Z,2.00
2023-01-28T08:23:39.805Z,1.40
2023-01-28T08:24:40.108Z,1.50
2023-01-28T08:25:41.902Z,2.10
2023-01-28T08:26:39.394Z,1.90
2023-01-28T08:27:39.884Z,1.30
2023-01-28T08:28:40.274Z,1.20
2023-01-28T08:29:40.056Z,0.80
2023-01-28T08:30:39.303Z,0.90
2023-01-28T08:31:39.282Z,0.90
2023-01-28T08:32:39.235Z,0.90
2023-01-28T08:33:39.295Z,1.00
2023-01-28T08:34:39.238Z,0.80
2023-01-28T08:35:39.198Z,0.80
2023-01-28T08:36:39.264Z,0.80
2023-01-28T08:37:39.332Z,0.90
2023-01-28T08:38:39.326Z,0.90
2023-01-28T08:39:39.164Z,1.00
2023-01-28T08:40:39.312Z,1.10
2023-01-28T08:41:39.131Z,0.60
2023-01-28T08:42:39.154Z,1.00
2023-01-28T08:43:39.437Z,1.00
2023-01-28T08:44:39.173Z,0.70
2023-01-28T08:45:39.520Z,0.70
2023-01-28T08:46:39.420Z,0.90
2023-01-28T08:47:39.395Z,0.80
2023-01-28T08:48:39.284Z,0.70
2023-01-28T08:49:38.975Z,1.00
2023-01-28T08:50:39.134Z,1.00
2023-01-28T08:51:39.059Z,1.20
2023-01-28T08:52:39.071Z,1.10
2023-01-28T08:53:39.133Z,1.30
2023-01-28T08:54:40.117Z,1.10
2023-01-28T08:55:41.541Z,0.70
2023-01-28T08:56:39.523Z,0.80
2023-01-28T08:57:39.009Z,1.10
2023-01-28T08:58:38.951Z,0.90
2023-01-28T08:59:39.149Z,1.10
2023-01-28T09:00:39.022Z,0.80
2023-01-28T09:01:39.025Z,1.10
2023-01-28T09:02:38.892Z,0.90
2023-01-28T09:03:39.139Z,1.10
2023-01-28T09:04:39.013Z,0.90
2023-01-28T09:05:38.950Z,1.00
2023-01-28T09:06:39.233Z,0.70
2023-01-28T09:07:38.708Z,1.00
2023-01-28T09:08:39.766Z,1.20
2023-01-28T09:09:38.940Z,0.90
2023-01-28T09:10:40.008Z,1.00
2023-01-28T09:11:38.949Z,1.20
2023-01-28T09:12:38.753Z,0.90
2023-01-28T09:13:38.647Z,1.20
2023-01-28T09:14:38.630Z,1.10
2023-01-28T09:15:38.659Z,0.80
2023-01-28T09:16:38.981Z,1.10
2023-01-28T09:17:38.571Z,0.80
2023-01-28T09:18:38.578Z,1.00
2023-01-28T09:19:38.808Z,0.90
2023-01-28T09:20:38.541Z,0.80
2023-01-28T09:21:38.861Z,1.10
2023-01-28T09:22:38.504Z,1.00
2023-01-28T09:23:38.492Z,1.10
2023-01-28T09:24:39.075Z,1.00
2023-01-28T09:25:38.465Z,1.00
2023-01-28T09:26:39.086Z,1.30
2023-01-28T09:27:38.450Z,1.00
2023-01-28T09:28:39.196Z,0.80
2023-01-28T09:29:39.184Z,0.90
2023-01-28T09:30:39.350Z,1.20
2023-01-28T09:31:39.404Z,1.00
2023-01-28T09:32:39.143Z,1.10
2023-01-28T09:33:39.302Z,1.20
2023-01-28T09:34:39.206Z,0.90
2023-01-28T09:35:39.025Z,0.80
2023-01-28T09:36:39.537Z,1.30
2023-01-28T09:37:39.176Z,1.20
2023-01-28T09:38:38.973Z,1.00
2023-01-28T09:39:39.243Z,0.70
2023-01-28T09:40:39.147Z,0.90
2023-01-28T09:41:39.049Z,1.00
2023-01-28T09:42:39.213Z,1.30
2023-01-28T09:43:39.120Z,1.00
2023-01-28T09:44:38.655Z,1.10
2023-01-28T09:45:39.186Z,1.10
2023-01-28T09:46:38.292Z,1.00
2023-01-28T09:47:38.231Z,0.90
2023-01-28T09:48:38.407Z,0.90
2023-01-28T09:49:38.362Z,1.10
2023-01-28T09:50:38.433Z,1.20
2023-01-28T09:51:38.343Z,1.00
2023-01-28T09:52:38.495Z,1.10
2023-01-28T09:53:38.676Z,1.00
2023-01-28T09:54:38.641Z,0.90
2023-01-28T09:55:38.242Z,1.00
2023-01-28T09:56:38.804Z,1.00
2023-01-28T09:57:38.240Z,0.70
2023-01-28T09:58:38.174Z,0.90
2023-01-28T09:59:38.320Z,0.90
2023-01-28T10:00:39.044Z,0.90
2023-01-28T10:01:38.936Z,1.10
2023-01-28T10:02:38.616Z,1.40
2023-01-28T10:03:39.187Z,0.90
2023-01-28T10:04:38.511Z,0.90
2023-01-28T10:05:40.846Z,0.90
2023-01-28T10:06:38.718Z,1.00
2023-01-28T10:07:38.849Z,1.20
2023-01-28T10:08:37.961Z,1.00
2023-01-28T10:09:38.415Z,1.00
2023-01-28T10:10:37.881Z,1.00
2023-01-28T10:11:38.193Z,1.40
2023-01-28T10:12:37.894Z,1.30
2023-01-28T10:13:37.881Z,1.00
2023-01-28T10:14:38.696Z,0.70
2023-01-28T10:15:38.678Z,1.00
2023-01-28T10:16:37.828Z,1.00
2023-01-28T10:17:37.934Z,0.70
2023-01-28T10:18:37.976Z,1.00
2023-01-28T10:19:38.004Z,0.90
2023-01-28T10:20:38.023Z,0.90
2023-01-28T10:21:38.100Z,0.90
2023-01-28T10:22:37.867Z,0.70
2023-01-28T10:23:38.231Z,0.90
2023-01-28T10:24:38.403Z,0.90
2023-01-28T10:25:38.306Z,1.10
2023-01-28T10:26:37.762Z,1.30
2023-01-28T10:27:38.086Z,1.10
2023-01-28T10:28:37.757Z,0.90
2023-01-28T10:29:37.857Z,1.30
2023-01-28T10:30:38.487Z,1.10
2023-01-28T10:31:38.364Z,0.90
2023-01-28T10:32:37.730Z,1.20
2023-01-28T10:33:38.407Z,1.40
2023-01-28T10:34:38.119Z,1.10
2023-01-28T10:35:38.048Z,1.30
2023-01-28T10:36:38.015Z,1.00
2023-01-28T10:37:38.372Z,1.40
2023-01-28T10:38:38.047Z,1.20
2023-01-28T10:39:38.333Z,1.50
2023-01-28T10:40:38.502Z,1.00
2023-01-28T10:41:45.328Z,1.00
2023-01-28T10:42:38.740Z,1.00
2023-01-28T10:43:37.453Z,1.10
2023-01-28T10:44:37.764Z,1.00
2023-01-28T10:45:37.464Z,0.70
2023-01-28T10:46:37.423Z,0.90
2023-01-28T10:47:37.535Z,0.90
2023-01-28T10:48:37.510Z,1.00
2023-01-28T10:49:37.613Z,1.00
2023-01-28T10:50:37.403Z,1.30
2023-01-28T10:51:37.361Z,1.20
2023-01-28T10:52:37.412Z,1.00
2023-01-28T10:53:37.339Z,1.40
2023-01-28T10:54:37.363Z,1.20
2023-01-28T10:55:37.315Z,1.20
2023-01-28T10:56:37.291Z,1.10
2023-01-28T10:57:37.411Z,1.00
2023-01-28T10:58:37.272Z,1.10
2023-01-28T10:59:37.309Z,1.00
2023-01-28T11:00:37.331Z,0.80
2023-01-28T11:01:37.212Z,1.20
2023-01-28T11:02:37.443Z,1.20
2023-01-28T11:03:37.292Z,1.10
2023-01-28T11:04:37.321Z,1.10
2023-01-28T11:05:37.269Z,1.00
2023-01-28T11:06:37.251Z,1.20
2023-01-28T11:07:37.262Z,0.90
2023-01-28T11:08:37.129Z,0.80
2023-01-28T11:09:37.139Z,1.10
2023-01-28T11:10:37.130Z,0.90
2023-01-28T11:11:37.326Z,1.20
2023-01-28T11:12:37.520Z,1.00
2023-01-28T11:13:37.080Z,1.20
2023-01-28T11:14:37.309Z,0.90
2023-01-28T11:15:37.308Z,1.20
2023-01-28T11:16:37.048Z,1.10
2023-01-28T11:17:37.116Z,1.10
2023-01-28T11:18:37.009Z,1.20
2023-01-28T11:19:37.033Z,1.00
2023-01-28T11:20:37.309Z,1.10
2023-01-28T11:21:37.323Z,1.00
2023-01-28T11:22:37.078Z,0.90
2023-01-28T11:23:36.951Z,1.10
2023-01-28T11:24:37.015Z,0.80
2023-01-28T11:25:37.451Z,1.10
2023-01-28T11:26:36.899Z,0.90
2023-01-28T11:27:37.315Z,0.90
2023-01-28T11:28:37.016Z,1.20
2023-01-28T11:29:37.426Z,1.10
2023-01-28T11:30:36.893Z,0.80
2023-01-28T11:31:36.967Z,1.30
2023-01-28T11:32:36.836Z,1.00
2023-01-28T11:33:36.879Z,1.00
2023-01-28T11:34:36.836Z,1.30
2023-01-28T11:35:36.867Z,1.00
2023-01-28T11:36:37.324Z,1.50
2023-01-28T11:37:36.957Z,0.90
2023-01-28T11:38:36.918Z,1.10
2023-01-28T11:39:36.916Z,0.90
2023-01-28T11:40:36.725Z,1.10
2023-01-28T11:41:36.943Z,0.90
2023-01-28T11:42:36.703Z,1.20
2023-01-28T11:43:36.815Z,0.90
2023-01-28T11:44:36.765Z,1.20
2023-01-28T11:45:36.777Z,0.90
2023-01-28T11:46:36.775Z,1.20
2023-01-28T11:47:36.826Z,0.90
2023-01-28T11:48:36.845Z,1.50
2023-01-28T11:49:36.850Z,1.00
2023-01-28T11:50:36.585Z,1.20
2023-01-28T11:51:36.582Z,1.40
2023-01-28T11:53:02.566Z,0.80
2023-01-28T11:53:38.250Z,1.10
2023-01-28T11:54:36.608Z,1.20
2023-01-28T11:55:36.636Z,1.60
2023-01-28T11:56:36.716Z,1.20
2023-01-28T11:57:36.650Z,1.10
2023-01-28T11:58:36.515Z,1.20
2023-01-28T11:59:36.658Z,1.30
2023-01-28T12:00:36.712Z,1.60
2023-01-28T12:01:36.704Z,1.40
2023-01-28T12:02:37.176Z,1.10
2023-01-28T12:03:36.773Z,2.40
2023-01-28T12:04:36.834Z,2.50
2023-01-28T12:05:36.554Z,3.50
2023-01-28T12:06:36.762Z,1.60
2023-01-28T12:07:37.049Z,1.80
2023-01-28T12:08:36.988Z,1.50
2023-01-28T12:09:37.029Z,1.40
2023-01-28T12:10:37.041Z,1.40
2023-01-28T12:11:37.071Z,1.00
2023-01-28T12:12:37.035Z,1.40
2023-01-28T12:13:36.295Z,1.20
2023-01-28T12:14:36.321Z,1.40
2023-01-28T12:15:36.421Z,1.10
2023-01-28T12:16:36.389Z,1.20
2023-01-28T12:17:36.499Z,1.50
2023-01-28T12:18:36.556Z,1.50
2023-01-28T12:19:36.288Z,1.20
2023-01-28T12:20:36.677Z,1.20
2023-01-28T12:21:36.179Z,1.20
2023-01-28T12:22:37.031Z,1.60
2023-01-28T12:23:36.820Z,1.30
2023-01-28T12:24:36.238Z,1.30
2023-01-28T12:25:36.867Z,1.60
2023-01-28T12:26:36.483Z,2.10
2023-01-28T12:27:36.252Z,1.70
2023-01-28T12:28:36.118Z,1.40
2023-01-28T12:29:37.184Z,1.10
2023-01-28T12:30:36.176Z,1.10
2023-01-28T12:31:36.919Z,1.50
2023-01-28T12:32:36.968Z,1.20
2023-01-28T12:33:36.865Z,1.40
2023-01-28T12:34:36.786Z,1.40
2023-01-28T12:35:37.014Z,1.70
2023-01-28T12:36:36.007Z,1.10
2023-01-28T12:37:36.801Z,1.10
2023-01-28T12:38:36.135Z,1.30
2023-01-28T12:39:36.155Z,1.30
2023-01-28T12:40:36.706Z,1.80
2023-01-28T12:41:36.865Z,2.50
2023-01-28T12:42:35.924Z,2.00
2023-01-28T12:43:35.925Z,2.40
2023-01-28T12:44:36.089Z,1.90
2023-01-28T12:45:36.141Z,2.10
2023-01-28T12:46:36.173Z,1.80
2023-01-28T12:47:36.003Z,1.90
2023-01-28T12:48:36.007Z,1.80
2023-01-28T12:49:36.548Z,1.70
2023-01-28T12:50:36.269Z,1.40
2023-01-28T12:51:36.027Z,1.20
2023-01-28T12:52:36.035Z,1.50
2023-01-28T12:53:36.584Z,1.80
2023-01-28T12:54:36.629Z,1.60
2023-01-28T12:55:36.139Z,1.40
2023-01-28T12:56:35.948Z,2.50
2023-01-28T12:57:35.744Z,2.60
2023-01-28T12:58:36.517Z,2.90
2023-01-28T12:59:35.944Z,1.40
2023-01-28T13:00:35.775Z,1.50
2023-01-28T13:01:35.854Z,1.40
2023-01-28T13:02:36.399Z,1.80
2023-01-28T13:03:36.483Z,2.10
2023-01-28T13:04:38.934Z,2.90
2023-01-28T13:05:36.525Z,2.20
2023-01-28T13:06:35.678Z,1.50
2023-01-28T13:07:36.330Z,1.60
2023-01-28T13:08:35.730Z,1.80
2023-01-28T13:09:36.153Z,1.60
2023-01-28T13:10:36.379Z,1.70
2023-01-28T13:11:37.087Z,1.80
2023-01-28T13:12:36.093Z,1.50
2023-01-28T13:13:35.662Z,1.70
2023-01-28T13:14:35.693Z,1.70
2023-01-28T13:15:35.550Z,1.60
2023-01-28T13:16:38.669Z,1.70
2023-01-28T13:17:35.548Z,1.80
2023-01-28T13:18:35.467Z,1.30